Trans Friendship II — VRFY6 — position and weather

sailwx.info

Track history (hours):
 
Tides and Currents Weather Stations Pressure Air Temp Water Temp Dewpoint Dewpoint Depression Visibility Wind Speed Wind Dir Waves Ship Positions

Trans Friendship II

Last reported at 2018-May-18 04:48 UTC. Time now 2018-May-24 08:07 UTC.
Position N 29°43' W 089°59'.

Length 177 m; draft 6.3 m.

Type: Cargo ship. MMSI: 477982100.

Date/timePositionNaut miles runAvg speedWind from/ knotsBaromVisibWave heightAir tempDewpointWater temp
2018-May-18 04:48N 29°43' W 089°59'3 9.9
2018-May-18 04:27N 29°40' W 089°57'6 9.3
2018-May-18 03:51N 29°36' W 089°53'13 9.6
2018-May-18 02:30N 29°29' W 089°41'89 8.9
2018-May-17 16:27N 27°60' W 089°47'612.5
2018-May-17 15:56N 27°54' W 089°49'3113.1
2018-May-17 13:36N 27°25' W 090°01'213.3
2018-May-17 13:27N 27°23' W 090°02'42913.2
2018-May-16 04:57N 20°51' W 093°12'1913.0
2018-May-16 03:29N 20°34' W 093°21'  
Track history (hours):
 
Tides and Currents Weather Stations Pressure Air Temp Water Temp Dewpoint Dewpoint Depression Visibility Wind Speed Wind Dir Waves Ship Positions

Trans Friendship II

Last reported at 2018-May-18 04:48 UTC. Time now 2018-May-24 08:07 UTC.
Position N 29°43' W 089°59'.

Length 177 m; draft 6.3 m.

Type: Cargo ship. MMSI: 477982100.

Date/timePositionNaut miles runAvg speedWind from/ knotsBaromVisibWave heightAir tempDewpointWater temp
2018-May-18 04:48N 29°43' W 089°59'3 9.9
2018-May-18 04:27N 29°40' W 089°57'6 9.3
2018-May-18 03:51N 29°36' W 089°53'13 9.6
2018-May-18 02:30N 29°29' W 089°41'89 8.9
2018-May-17 16:27N 27°60' W 089°47'612.5
2018-May-17 15:56N 27°54' W 089°49'3113.1
2018-May-17 13:36N 27°25' W 090°01'213.3
2018-May-17 13:27N 27°23' W 090°02'42913.2
2018-May-16 04:57N 20°51' W 093°12'1913.0
2018-May-16 03:29N 20°34' W 093°21'  

Dump ship's entire track history